sensor_id;sensor_type;location;lat;lon;timestamp;pressure;altitude;pressure_sealevel;temperature;humidity
10718;BME280;13513;42.700;23.124;2023-04-01T00:00:34;92082.97;;;13.52;44.62
10718;BME280;13513;42.700;23.124;2023-04-01T00:03:05;92082.53;;;13.66;44.16
10718;BME280;13513;42.700;23.124;2023-04-01T00:05:36;92086.27;;;13.65;44.30
10718;BME280;13513;42.700;23.124;2023-04-01T00:08:07;92083.41;;;13.59;44.48
10718;BME280;13513;42.700;23.124;2023-04-01T00:10:37;92086.06;;;13.59;44.37
10718;BME280;13513;42.700;23.124;2023-04-01T00:13:08;92087.19;;;13.55;44.40
10718;BME280;13513;42.700;23.124;2023-04-01T00:15:40;92085.30;;;13.56;44.64
10718;BME280;13513;42.700;23.124;2023-04-01T00:18:12;92083.73;;;13.55;44.71
10718;BME280;13513;42.700;23.124;2023-04-01T00:20:49;92080.87;;;13.49;44.76
10718;BME280;13513;42.700;23.124;2023-04-01T00:23:21;92077.27;;;13.40;46.12
10718;BME280;13513;42.700;23.124;2023-04-01T00:25:52;92071.09;;;13.47;47.45
10718;BME280;13513;42.700;23.124;2023-04-01T00:28:24;92071.69;;;13.41;46.60
10718;BME280;13513;42.700;23.124;2023-04-01T00:30:54;92061.42;;;13.35;46.04
10718;BME280;13513;42.700;23.124;2023-04-01T00:33:27;92060.80;;;13.19;46.64
10718;BME280;13513;42.700;23.124;2023-04-01T00:36:05;92060.13;;;13.30;46.50
10718;BME280;13513;42.700;23.124;2023-04-01T00:38:37;92045.58;;;13.27;45.86
10718;BME280;13513;42.700;23.124;2023-04-01T00:41:07;92043.37;;;13.13;46.11
10718;BME280;13513;42.700;23.124;2023-04-01T00:43:39;92041.42;;;13.21;46.07
10718;BME280;13513;42.700;23.124;2023-04-01T00:46:10;92039.85;;;13.18;46.05
10718;BME280;13513;42.700;23.124;2023-04-01T00:48:42;92036.36;;;13.22;46.07
10718;BME280;13513;42.700;23.124;2023-04-01T00:51:25;92036.40;;;13.20;46.06
10718;BME280;13513;42.700;23.124;2023-04-01T00:53:57;92033.15;;;13.02;46.80
10718;BME280;13513;42.700;23.124;2023-04-01T00:56:40;92027.59;;;13.01;46.85
10718;BME280;13513;42.700;23.124;2023-04-01T00:59:07;92022.81;;;13.00;46.85
10718;BME280;13513;42.700;23.124;2023-04-01T01:01:38;92018.70;;;12.87;47.13
10718;BME280;13513;42.700;23.124;2023-04-01T01:04:20;92015.18;;;12.94;46.82
10718;BME280;13513;42.700;23.124;2023-04-01T01:06:48;92012.52;;;12.94;46.54
10718;BME280;13513;42.700;23.124;2023-04-01T01:09:31;92013.05;;;12.98;46.57
10718;BME280;13513;42.700;23.124;2023-04-01T01:12:15;92000.03;;;12.99;46.60
10718;BME280;13513;42.700;23.124;2023-04-01T01:15:02;91991.14;;;12.88;46.63
10718;BME280;13513;42.700;23.124;2023-04-01T01:17:48;91988.17;;;12.92;46.63
10718;BME280;13513;42.700;23.124;2023-04-01T01:21:15;91976.20;;;12.94;46.61
10718;BME280;13513;42.700;23.124;2023-04-01T01:31:50;91964.09;;;12.65;47.19
10718;BME280;13513;42.700;23.124;2023-04-01T01:34:49;91979.27;;;12.80;46.82
10718;BME280;13513;42.700;23.124;2023-04-01T01:37:18;91979.52;;;12.81;46.32
10718;BME280;13513;42.700;23.124;2023-04-01T01:39:53;91977.33;;;12.88;46.02
10718;BME280;13513;42.700;23.124;2023-04-01T01:42:23;91982.52;;;13.01;45.61
10718;BME280;13513;42.700;23.124;2023-04-01T01:44:55;91980.05;;;13.07;45.37
10718;BME280;13513;42.700;23.124;2023-04-01T01:47:27;91976.69;;;13.01;45.09
10718;BME280;13513;42.700;23.124;2023-04-01T01:49:59;91964.41;;;13.08;44.76
10718;BME280;13513;42.700;23.124;2023-04-01T01:52:30;91965.84;;;12.98;45.15
10718;BME280;13513;42.700;23.124;2023-04-01T01:55:01;91959.63;;;13.07;44.96
10718;BME280;13513;42.700;23.124;2023-04-01T01:57:36;91956.21;;;13.04;44.82
10718;BME280;13513;42.700;23.124;2023-04-01T02:00:09;91938.69;;;13.06;44.44
10718;BME280;13513;42.700;23.124;2023-04-01T02:02:45;91939.33;;;12.98;44.88
10718;BME280;13513;42.700;23.124;2023-04-01T02:05:21;91939.49;;;13.06;44.46
10718;BME280;13513;42.700;23.124;2023-04-01T02:08:01;91947.09;;;13.13;43.83
10718;BME280;13513;42.700;23.124;2023-04-01T02:10:34;91954.82;;;13.30;43.46
10718;BME280;13513;42.700;23.124;2023-04-01T02:13:10;91951.52;;;13.20;43.81
10718;BME280;13513;42.700;23.124;2023-04-01T02:15:41;91947.38;;;13.30;43.36
10718;BME280;13513;42.700;23.124;2023-04-01T02:18:11;91933.75;;;13.20;43.86
10718;BME280;13513;42.700;23.124;2023-04-01T02:20:43;91940.51;;;13.29;43.62
10718;BME280;13513;42.700;23.124;2023-04-01T02:23:15;91934.44;;;13.28;44.04
10718;BME280;13513;42.700;23.124;2023-04-01T02:25:48;91944.28;;;13.25;43.88
10718;BME280;13513;42.700;23.124;2023-04-01T02:28:19;91939.62;;;13.17;44.06
10718;BME280;13513;42.700;23.124;2023-04-01T02:30:51;91940.34;;;13.23;44.13
10718;BME280;13513;42.700;23.124;2023-04-01T02:33:23;91943.03;;;13.20;44.31
10718;BME280;13513;42.700;23.124;2023-04-01T02:35:54;91950.59;;;13.11;44.82
10718;BME280;13513;42.700;23.124;2023-04-01T02:38:25;91949.26;;;13.11;45.14
10718;BME280;13513;42.700;23.124;2023-04-01T02:41:00;91954.61;;;13.06;44.94
10718;BME280;13513;42.700;23.124;2023-04-01T02:43:31;91960.42;;;13.08;44.91
10718;BME280;13513;42.700;23.124;2023-04-01T02:46:03;91958.94;;;12.99;45.50
10718;BME280;13513;42.700;23.124;2023-04-01T02:48:32;91962.07;;;13.04;45.46
10718;BME280;13513;42.700;23.124;2023-04-01T02:51:03;91961.06;;;12.95;45.72
10718;BME280;13513;42.700;23.124;2023-04-01T02:53:35;91974.32;;;13.00;45.61
10718;BME280;13513;42.700;23.124;2023-04-01T02:56:05;91984.13;;;12.97;46.49
10718;BME280;13513;42.700;23.124;2023-04-01T02:58:36;91988.66;;;12.94;47.44
10718;BME280;13513;42.700;23.124;2023-04-01T03:01:07;91992.64;;;12.94;47.67
10718;BME280;13513;42.700;23.124;2023-04-01T03:03:38;91988.94;;;12.92;47.97
10718;BME280;13513;42.700;23.124;2023-04-01T03:06:12;91990.05;;;12.89;48.82
10718;BME280;13513;42.700;23.124;2023-04-01T03:08:43;91993.98;;;12.70;50.17
10718;BME280;13513;42.700;23.124;2023-04-01T03:11:15;91993.39;;;12.73;52.36
10718;BME280;13513;42.700;23.124;2023-04-01T03:13:46;92004.03;;;12.71;54.73
10718;BME280;13513;42.700;23.124;2023-04-01T03:16:17;91994.44;;;12.51;57.28
10718;BME280;13513;42.700;23.124;2023-04-01T03:18:48;92004.68;;;12.32;64.20
10718;BME280;13513;42.700;23.124;2023-04-01T03:21:21;92012.87;;;12.01;68.51
10718;BME280;13513;42.700;23.124;2023-04-01T03:23:53;92000.61;;;11.79;69.49
10718;BME280;13513;42.700;23.124;2023-04-01T03:26:24;91986.16;;;11.64;73.42
10718;BME280;13513;42.700;23.124;2023-04-01T03:28:54;91977.83;;;11.40;67.62
10718;BME280;13513;42.700;23.124;2023-04-01T03:31:27;91961.42;;;11.38;67.24
10718;BME280;13513;42.700;23.124;2023-04-01T03:33:58;91944.72;;;11.45;70.10
10718;BME280;13513;42.700;23.124;2023-04-01T03:36:29;91927.88;;;11.31;70.83
10718;BME280;13513;42.700;23.124;2023-04-01T03:38:59;91918.25;;;11.47;77.55
10718;BME280;13513;42.700;23.124;2023-04-01T03:41:30;91914.08;;;11.41;78.21
10718;BME280;13513;42.700;23.124;2023-04-01T03:44:02;91901.06;;;11.47;76.01
10718;BME280;13513;42.700;23.124;2023-04-01T03:46:33;91900.75;;;11.56;76.54
10718;BME280;13513;42.700;23.124;2023-04-01T03:49:08;91903.09;;;11.63;77.54
10718;BME280;13513;42.700;23.124;2023-04-01T03:51:43;91886.64;;;11.66;85.05
10718;BME280;13513;42.700;23.124;2023-04-01T03:54:14;91889.02;;;11.67;82.78
10718;BME280;13513;42.700;23.124;2023-04-01T03:56:46;91877.44;;;11.61;82.15
10718;BME280;13513;42.700;23.124;2023-04-01T03:59:16;91872.39;;;11.62;82.74
10718;BME280;13513;42.700;23.124;2023-04-01T04:01:47;91866.53;;;11.67;83.33
10718;BME280;13513;42.700;23.124;2023-04-01T04:04:18;91866.75;;;11.73;80.60
10718;BME280;13513;42.700;23.124;2023-04-01T04:06:49;91867.25;;;11.78;80.25
10718;BME280;13513;42.700;23.124;2023-04-01T04:09:22;91871.73;;;11.77;75.71
10718;BME280;13513;42.700;23.124;2023-04-01T04:11:52;91861.70;;;11.74;79.56
10718;BME280;13513;42.700;23.124;2023-04-01T04:14:23;91858.28;;;11.71;74.54
10718;BME280;13513;42.700;23.124;2023-04-01T04:16:56;91852.55;;;11.62;66.84
10718;BME280;13513;42.700;23.124;2023-04-01T04:19:31;91846.82;;;11.81;59.17
10718;BME280;13513;42.700;23.124;2023-04-01T04:21:58;91844.97;;;11.81;57.65
10718;BME280;13513;42.700;23.124;2023-04-01T04:24:29;91841.91;;;11.98;57.17
10718;BME280;13513;42.700;23.124;2023-04-01T04:27:00;91839.47;;;12.01;54.68
10718;BME280;13513;42.700;23.124;2023-04-01T04:29:30;91836.59;;;12.21;53.02
10718;BME280;13513;42.700;23.124;2023-04-01T04:32:01;91827.22;;;12.32;51.79
10718;BME280;13513;42.700;23.124;2023-04-01T04:34:31;91830.04;;;12.40;52.32
10718;BME280;13513;42.700;23.124;2023-04-01T04:37:01;91828.37;;;12.47;50.40
10718;BME280;13513;42.700;23.124;2023-04-01T04:39:32;91817.73;;;12.49;50.17
10718;BME280;13513;42.700;23.124;2023-04-01T04:42:03;91819.90;;;12.45;50.07
10718;BME280;13513;42.700;23.124;2023-04-01T04:44:32;91821.47;;;12.48;50.15
10718;BME280;13513;42.700;23.124;2023-04-01T04:47:03;91815.33;;;12.50;49.19
10718;BME280;13513;42.700;23.124;2023-04-01T04:49:34;91807.06;;;12.54;49.14
10718;BME280;13513;42.700;23.124;2023-04-01T04:52:05;91808.94;;;12.54;49.40
10718;BME280;13513;42.700;23.124;2023-04-01T04:54:36;91806.02;;;12.53;48.52
10718;BME280;13513;42.700;23.124;2023-04-01T04:57:06;91799.80;;;12.62;48.12
10718;BME280;13513;42.700;23.124;2023-04-01T04:59:38;91796.91;;;12.61;48.55
10718;BME280;13513;42.700;23.124;2023-04-01T05:02:09;91797.70;;;12.62;48.13
10718;BME280;13513;42.700;23.124;2023-04-01T05:04:40;91786.10;;;12.58;48.29
10718;BME280;13513;42.700;23.124;2023-04-01T05:07:11;91775.38;;;12.47;48.22
10718;BME280;13513;42.700;23.124;2023-04-01T05:09:42;91772.81;;;12.42;48.55
10718;BME280;13513;42.700;23.124;2023-04-01T05:12:12;91773.78;;;12.48;48.26
10718;BME280;13513;42.700;23.124;2023-04-01T05:14:43;91767.39;;;12.31;48.87
10718;BME280;13513;42.700;23.124;2023-04-01T05:17:14;91760.49;;;12.29;49.13
10718;BME280;13513;42.700;23.124;2023-04-01T05:19:45;91747.92;;;12.40;48.81
10718;BME280;13513;42.700;23.124;2023-04-01T05:22:16;91746.31;;;12.60;48.34
10718;BME280;13513;42.700;23.124;2023-04-01T05:24:46;91762.25;;;12.76;48.20
10718;BME280;13513;42.700;23.124;2023-04-01T05:27:17;91761.51;;;12.89;47.09
10718;BME280;13513;42.700;23.124;2023-04-01T05:29:47;91757.63;;;13.51;45.75
10718;BME280;13513;42.700;23.124;2023-04-01T05:32:17;91756.84;;;14.07;45.32
10718;BME280;13513;42.700;23.124;2023-04-01T05:34:52;91752.55;;;14.38;44.20
10718;BME280;13513;42.700;23.124;2023-04-01T05:37:22;91751.17;;;14.76;43.43
10718;BME280;13513;42.700;23.124;2023-04-01T05:39:52;91739.44;;;15.23;43.58
10718;BME280;13513;42.700;23.124;2023-04-01T05:42:23;91748.88;;;15.29;41.86
10718;BME280;13513;42.700;23.124;2023-04-01T05:44:54;91741.23;;;14.92;41.89
10718;BME280;13513;42.700;23.124;2023-04-01T05:47:25;91744.26;;;15.35;41.65
10718;BME280;13513;42.700;23.124;2023-04-01T05:49:56;91730.52;;;15.41;41.34
10718;BME280;13513;42.700;23.124;2023-04-01T05:52:27;91723.30;;;15.83;40.34
10718;BME280;13513;42.700;23.124;2023-04-01T05:54:57;91712.91;;;16.69;41.37
10718;BME280;13513;42.700;23.124;2023-04-01T05:57:28;91725.92;;;16.79;39.18
10718;BME280;13513;42.700;23.124;2023-04-01T05:59:59;91722.28;;;16.49;39.14
10718;BME280;13513;42.700;23.124;2023-04-01T06:02:30;91728.16;;;16.29;40.51
10718;BME280;13513;42.700;23.124;2023-04-01T06:05:18;91726.48;;;15.94;40.32
10718;BME280;13513;42.700;23.124;2023-04-01T06:07:49;91715.87;;;15.72;41.04
10718;BME280;13513;42.700;23.124;2023-04-01T06:10:21;91711.77;;;15.77;40.94
10718;BME280;13513;42.700;23.124;2023-04-01T06:13:19;91713.35;;;15.34;41.22
10718;BME280;13513;42.700;23.124;2023-04-01T06:29:41;91714.67;;;14.68;43.35
10718;BME280;13513;42.700;23.124;2023-04-01T06:32:24;91722.77;;;14.63;42.99
10718;BME280;13513;42.700;23.124;2023-04-01T06:43:06;91714.94;;;14.69;44.79
10718;BME280;13513;42.700;23.124;2023-04-01T06:45:50;91710.00;;;14.62;43.89
10718;BME280;13513;42.700;23.124;2023-04-01T06:51:39;91690.33;;;14.63;44.20
10718;BME280;13513;42.700;23.124;2023-04-01T06:56:54;91686.33;;;14.52;44.21
10718;BME280;13513;42.700;23.124;2023-04-01T06:59:29;91690.80;;;14.65;44.22
10718;BME280;13513;42.700;23.124;2023-04-01T07:04:44;91695.66;;;14.96;43.60
10718;BME280;13513;42.700;23.124;2023-04-01T07:07:38;91685.55;;;15.18;43.09
10718;BME280;13513;42.700;23.124;2023-04-01T07:10:25;91684.61;;;14.92;43.32
10718;BME280;13513;42.700;23.124;2023-04-01T07:12:53;91707.02;;;14.88;42.71
10718;BME280;13513;42.700;23.124;2023-04-01T07:15:42;91707.33;;;14.98;43.19
10718;BME280;13513;42.700;23.124;2023-04-01T07:18:15;91711.81;;;15.00;42.60
10718;BME280;13513;42.700;23.124;2023-04-01T07:20:46;91704.25;;;14.82;43.19
10718;BME280;13513;42.700;23.124;2023-04-01T07:23:29;91691.97;;;14.95;43.07
10718;BME280;13513;42.700;23.124;2023-04-01T07:26:15;91705.22;;;14.86;42.88
10718;BME280;13513;42.700;23.124;2023-04-01T07:28:42;91707.50;;;15.12;43.22
10718;BME280;13513;42.700;23.124;2023-04-01T07:34:29;91692.59;;;15.36;42.48
10718;BME280;13513;42.700;23.124;2023-04-01T07:37:13;91693.16;;;15.33;42.45
10718;BME280;13513;42.700;23.124;2023-04-01T07:48:33;91711.25;;;15.00;42.48
10718;BME280;13513;42.700;23.124;2023-04-01T07:51:10;91706.23;;;14.99;42.51
10718;BME280;13513;42.700;23.124;2023-04-01T08:10:37;91679.16;;;14.86;42.29
10718;BME280;13513;42.700;23.124;2023-04-01T08:13:32;91663.80;;;14.83;42.31
10718;BME280;13513;42.700;23.124;2023-04-01T08:21:31;91636.23;;;15.12;41.38
10718;BME280;13513;42.700;23.124;2023-04-01T08:24:05;91628.98;;;15.34;41.08
10718;BME280;13513;42.700;23.124;2023-04-01T08:26:39;91631.67;;;15.65;39.87
10718;BME280;13513;42.700;23.124;2023-04-01T08:31:53;91614.23;;;16.07;39.20
10718;BME280;13513;42.700;23.124;2023-04-01T08:34:28;91617.53;;;16.49;38.61
10718;BME280;13513;42.700;23.124;2023-04-01T08:37:05;91619.79;;;16.70;38.24
10718;BME280;13513;42.700;23.124;2023-04-01T08:39:41;91605.14;;;18.66;36.65
10718;BME280;13513;42.700;23.124;2023-04-01T08:42:39;91593.23;;;21.24;31.20
10718;BME280;13513;42.700;23.124;2023-04-01T08:48:13;91589.93;;;21.58;30.94
10718;BME280;13513;42.700;23.124;2023-04-01T08:53:39;91589.56;;;19.90;32.75
10718;BME280;13513;42.700;23.124;2023-04-01T08:56:18;91595.41;;;19.08;33.28
10718;BME280;13513;42.700;23.124;2023-04-01T09:10:15;91594.97;;;17.26;35.66
10718;BME280;13513;42.700;23.124;2023-04-01T09:15:46;91587.20;;;17.04;37.75
10718;BME280;13513;42.700;23.124;2023-04-01T09:21:19;91588.17;;;16.83;37.84
10718;BME280;13513;42.700;23.124;2023-04-01T09:29:49;91568.20;;;16.49;37.71
10718;BME280;13513;42.700;23.124;2023-04-01T09:32:20;91559.09;;;16.50;37.37
10718;BME280;13513;42.700;23.124;2023-04-01T09:34:55;91549.45;;;16.51;37.14
10718;BME280;13513;42.700;23.124;2023-04-01T09:37:48;91542.07;;;16.48;37.16
10718;BME280;13513;42.700;23.124;2023-04-01T09:41:17;91536.39;;;16.67;37.42
10718;BME280;13513;42.700;23.124;2023-04-01T09:43:25;91534.34;;;16.72;36.73
10718;BME280;13513;42.700;23.124;2023-04-01T09:48:46;91521.20;;;17.36;36.64
10718;BME280;13513;42.700;23.124;2023-04-01T09:54:23;91521.42;;;17.75;35.85
10718;BME280;13513;42.700;23.124;2023-04-01T10:14:25;91504.50;;;16.87;39.10
10718;BME280;13513;42.700;23.124;2023-04-01T10:17:21;91518.22;;;17.00;39.41
10718;BME280;13513;42.700;23.124;2023-04-01T10:26:09;91469.37;;;17.37;40.17
10718;BME280;13513;42.700;23.124;2023-04-01T10:43:30;91443.42;;;16.80;39.58
10718;BME280;13513;42.700;23.124;2023-04-01T10:46:11;91442.67;;;17.08;39.59
10718;BME280;13513;42.700;23.124;2023-04-01T10:54:46;91429.61;;;17.30;39.08
10718;BME280;13513;42.700;23.124;2023-04-01T11:03:21;91423.73;;;17.65;38.30
10718;BME280;13513;42.700;23.124;2023-04-01T11:17:24;91451.14;;;16.87;40.77
10718;BME280;13513;42.700;23.124;2023-04-01T11:23:10;91505.38;;;15.40;52.58
10718;BME280;13513;42.700;23.124;2023-04-01T11:26:05;91525.80;;;14.92;60.13
10718;BME280;13513;42.700;23.124;2023-04-01T11:42:57;91602.95;;;11.50;100.00
10718;BME280;13513;42.700;23.124;2023-04-01T11:45:37;91617.98;;;11.31;100.00
10718;BME280;13513;42.700;23.124;2023-04-01T11:48:34;91621.39;;;11.34;100.00
10718;BME280;13513;42.700;23.124;2023-04-01T11:54:00;91633.36;;;11.27;100.00
10718;BME280;13513;42.700;23.124;2023-04-01T11:56:37;91637.49;;;11.14;100.00
10718;BME280;13513;42.700;23.124;2023-04-01T11:59:19;91640.91;;;11.15;100.00
10718;BME280;13513;42.700;23.124;2023-04-01T12:01:59;91631.27;;;11.26;100.00
10718;BME280;13513;42.700;23.124;2023-04-01T12:07:21;91640.09;;;11.40;100.00
10718;BME280;13513;42.700;23.124;2023-04-01T12:10:15;91642.55;;;11.34;100.00
10718;BME280;13513;42.700;23.124;2023-04-01T12:12:58;91652.58;;;11.35;100.00
10718;BME280;13513;42.700;23.124;2023-04-01T12:20:56;91659.23;;;11.56;100.00
10718;BME280;13513;42.700;23.124;2023-04-01T12:26:56;91652.03;;;11.14;100.00
10718;BME280;13513;42.700;23.124;2023-04-01T12:29:54;91663.19;;;11.09;100.00
10718;BME280;13513;42.700;23.124;2023-04-01T12:32:40;91658.38;;;10.87;100.00
10718;BME280;13513;42.700;23.124;2023-04-01T12:46:56;91599.13;;;10.65;100.00
10718;BME280;13513;42.700;23.124;2023-04-01T12:49:32;91577.94;;;10.72;100.00
10718;BME280;13513;42.700;23.124;2023-04-01T12:54:59;91593.57;;;10.66;100.00
10718;BME280;13513;42.700;23.124;2023-04-01T12:57:47;91600.91;;;10.72;100.00
10718;BME280;13513;42.700;23.124;2023-04-01T13:08:48;91605.88;;;11.25;100.00
10718;BME280;13513;42.700;23.124;2023-04-01T13:11:20;91598.34;;;11.61;100.00
10718;BME280;13513;42.700;23.124;2023-04-01T13:22:26;91571.70;;;12.75;100.00
10718;BME280;13513;42.700;23.124;2023-04-01T13:28:18;91560.66;;;14.03;100.00
10718;BME280;13513;42.700;23.124;2023-04-01T13:30:51;91549.71;;;16.07;93.07
10718;BME280;13513;42.700;23.124;2023-04-01T13:33:47;91538.63;;;16.96;68.88
10718;BME280;13513;42.700;23.124;2023-04-01T13:39:23;91518.77;;;17.37;59.39
10718;BME280;13513;42.700;23.124;2023-04-01T13:44:56;91507.95;;;16.56;57.78
10718;BME280;13513;42.700;23.124;2023-04-01T13:47:41;91497.07;;;16.87;58.60
10718;BME280;13513;42.700;23.124;2023-04-01T13:50:19;91488.05;;;17.23;55.37
10718;BME280;13513;42.700;23.124;2023-04-01T13:58:49;91487.98;;;17.83;54.16
10718;BME280;13513;42.700;23.124;2023-04-01T14:01:30;91483.84;;;17.65;53.23
10718;BME280;13513;42.700;23.124;2023-04-01T14:07:06;91478.26;;;16.43;58.01
10718;BME280;13513;42.700;23.124;2023-04-01T14:09:57;91473.24;;;16.16;59.30
10718;BME280;13513;42.700;23.124;2023-04-01T14:12:29;91481.52;;;16.32;62.50
10718;BME280;13513;42.700;23.124;2023-04-01T14:21:08;91474.56;;;15.99;58.92
10718;BME280;13513;42.700;23.124;2023-04-01T14:29:52;91442.99;;;15.95;57.03
10718;BME280;13513;42.700;23.124;2023-04-01T14:47:54;91419.00;;;14.79;63.67
10718;BME280;13513;42.700;23.124;2023-04-01T14:49:42;91436.50;;;14.41;65.54
10718;BME280;13513;42.700;23.124;2023-04-01T14:52:22;91439.95;;;14.20;65.76
10718;BME280;13513;42.700;23.124;2023-04-01T14:54:49;91448.55;;;14.28;66.91
10718;BME280;13513;42.700;23.124;2023-04-01T14:57:31;91449.36;;;14.37;67.33
10718;BME280;13513;42.700;23.124;2023-04-01T15:02:59;91445.75;;;14.33;68.05
10718;BME280;13513;42.700;23.124;2023-04-01T15:08:18;91454.69;;;14.26;70.69
10718;BME280;13513;42.700;23.124;2023-04-01T15:13:54;91459.94;;;14.06;73.54
10718;BME280;13513;42.700;23.124;2023-04-01T15:22:07;91471.23;;;14.12;72.91
10718;BME280;13513;42.700;23.124;2023-04-01T15:25:30;91479.00;;;14.19;66.77
10718;BME280;13513;42.700;23.124;2023-04-01T15:27:33;91478.34;;;14.14;64.08
10718;BME280;13513;42.700;23.124;2023-04-01T15:33:11;91490.42;;;14.09;60.08
10718;BME280;13513;42.700;23.124;2023-04-01T15:35:52;91494.94;;;14.08;58.76
10718;BME280;13513;42.700;23.124;2023-04-01T15:38:41;91509.61;;;14.06;58.78
10718;BME280;13513;42.700;23.124;2023-04-01T15:41:16;91557.09;;;13.96;63.58
10718;BME280;13513;42.700;23.124;2023-04-01T15:43:49;91601.89;;;13.62;71.32
10718;BME280;13513;42.700;23.124;2023-04-01T15:52:40;91641.45;;;11.14;94.48
10718;BME280;13513;42.700;23.124;2023-04-01T15:55:31;91671.56;;;10.59;100.00
10718;BME280;13513;42.700;23.124;2023-04-01T15:58:04;91675.98;;;9.84;100.00
10718;BME280;13513;42.700;23.124;2023-04-01T16:06:26;91705.53;;;8.97;100.00
10718;BME280;13513;42.700;23.124;2023-04-01T16:09:59;91721.86;;;8.92;100.00
10718;BME280;13513;42.700;23.124;2023-04-01T16:14:38;91750.84;;;8.72;100.00
10718;BME280;13513;42.700;23.124;2023-04-01T16:17:10;91753.23;;;8.71;100.00
10718;BME280;13513;42.700;23.124;2023-04-01T16:19:53;91751.37;;;8.69;100.00
10718;BME280;13513;42.700;23.124;2023-04-01T16:22:32;91750.34;;;8.70;100.00
10718;BME280;13513;42.700;23.124;2023-04-01T16:30:40;91749.28;;;8.71;100.00
10718;BME280;13513;42.700;23.124;2023-04-01T16:33:50;91747.41;;;8.71;100.00
10718;BME280;13513;42.700;23.124;2023-04-01T16:36:39;91764.00;;;8.59;100.00
10718;BME280;13513;42.700;23.124;2023-04-01T16:42:11;91784.48;;;8.29;100.00
10718;BME280;13513;42.700;23.124;2023-04-01T16:44:55;91776.33;;;8.21;100.00
10718;BME280;13513;42.700;23.124;2023-04-01T16:47:41;91789.48;;;8.23;100.00
10718;BME280;13513;42.700;23.124;2023-04-01T16:55:54;91810.91;;;7.93;100.00
10718;BME280;13513;42.700;23.124;2023-04-01T16:58:27;91805.13;;;7.88;100.00
10718;BME280;13513;42.700;23.124;2023-04-01T17:01:21;91813.79;;;7.89;100.00
10718;BME280;13513;42.700;23.124;2023-04-01T17:03:58;91805.88;;;7.79;100.00
10718;BME280;13513;42.700;23.124;2023-04-01T17:06:28;91811.58;;;7.66;100.00
10718;BME280;13513;42.700;23.124;2023-04-01T17:18:22;91855.88;;;7.42;100.00
10718;BME280;13513;42.700;23.124;2023-04-01T17:23:53;91859.97;;;7.28;100.00
10718;BME280;13513;42.700;23.124;2023-04-01T17:26:37;91854.48;;;7.32;100.00
10718;BME280;13513;42.700;23.124;2023-04-01T17:38:18;91834.39;;;7.53;100.00
10718;BME280;13513;42.700;23.124;2023-04-01T17:40:17;91850.44;;;7.59;100.00
10718;BME280;13513;42.700;23.124;2023-04-01T17:45:44;91864.64;;;7.60;100.00
10718;BME280;13513;42.700;23.124;2023-04-01T17:51:17;91871.94;;;7.51;100.00
10718;BME280;13513;42.700;23.124;2023-04-01T17:56:48;91891.37;;;7.47;100.00
10718;BME280;13513;42.700;23.124;2023-04-01T17:59:37;91891.64;;;7.48;100.00
10718;BME280;13513;42.700;23.124;2023-04-01T18:02:21;91902.95;;;7.49;100.00
10718;BME280;13513;42.700;23.124;2023-04-01T18:04:56;91910.61;;;7.55;100.00
10718;BME280;13513;42.700;23.124;2023-04-01T18:08:01;91908.06;;;7.65;100.00
10718;BME280;13513;42.700;23.124;2023-04-01T18:10:41;91905.73;;;7.74;100.00
10718;BME280;13513;42.700;23.124;2023-04-01T18:16:33;91910.88;;;7.59;100.00
10718;BME280;13513;42.700;23.124;2023-04-01T18:21:47;91915.01;;;7.45;100.00
10718;BME280;13513;42.700;23.124;2023-04-01T18:24:43;91916.00;;;7.39;100.00
10718;BME280;13513;42.700;23.124;2023-04-01T18:28:21;91915.16;;;7.31;100.00
10718;BME280;13513;42.700;23.124;2023-04-01T18:30:11;91920.36;;;7.23;100.00
10718;BME280;13513;42.700;23.124;2023-04-01T18:38:04;91925.41;;;7.32;100.00
10718;BME280;13513;42.700;23.124;2023-04-01T18:40:34;91925.89;;;7.27;100.00
10718;BME280;13513;42.700;23.124;2023-04-01T18:43:19;91930.39;;;7.29;100.00
10718;BME280;13513;42.700;23.124;2023-04-01T18:46:00;91930.67;;;7.32;100.00
10718;BME280;13513;42.700;23.124;2023-04-01T18:49:05;91930.20;;;7.40;100.00
10718;BME280;13513;42.700;23.124;2023-04-01T18:51:59;91941.81;;;7.47;100.00
10718;BME280;13513;42.700;23.124;2023-04-01T18:54:32;91929.13;;;7.36;100.00
10718;BME280;13513;42.700;23.124;2023-04-01T18:57:16;91936.19;;;7.33;100.00
10718;BME280;13513;42.700;23.124;2023-04-01T18:59:56;91951.09;;;7.25;100.00
10718;BME280;13513;42.700;23.124;2023-04-01T19:02:40;91955.34;;;7.29;100.00
10718;BME280;13513;42.700;23.124;2023-04-01T19:05:17;91962.45;;;7.33;100.00
10718;BME280;13513;42.700;23.124;2023-04-01T19:07:49;91971.72;;;7.38;100.00
10718;BME280;13513;42.700;23.124;2023-04-01T19:10:35;91976.52;;;7.46;100.00
10718;BME280;13513;42.700;23.124;2023-04-01T19:18:52;91983.28;;;7.74;100.00
10718;BME280;13513;42.700;23.124;2023-04-01T19:21:39;91974.91;;;7.77;100.00
10718;BME280;13513;42.700;23.124;2023-04-01T19:32:49;91973.91;;;7.49;100.00
10718;BME280;13513;42.700;23.124;2023-04-01T19:38:11;91975.13;;;7.39;100.00
10718;BME280;13513;42.700;23.124;2023-04-01T19:49:47;91972.03;;;7.47;100.00
10718;BME280;13513;42.700;23.124;2023-04-01T19:52:35;91973.11;;;7.51;100.00
10718;BME280;13513;42.700;23.124;2023-04-01T19:58:28;91978.02;;;7.40;100.00
10718;BME280;13513;42.700;23.124;2023-04-01T20:01:01;91984.81;;;7.36;100.00
10718;BME280;13513;42.700;23.124;2023-04-01T20:03:55;91980.38;;;7.39;100.00
10718;BME280;13513;42.700;23.124;2023-04-01T20:06:53;91981.88;;;7.30;100.00
10718;BME280;13513;42.700;23.124;2023-04-01T20:15:29;91979.08;;;7.10;100.00
10718;BME280;13513;42.700;23.124;2023-04-01T20:17:59;91985.10;;;7.10;100.00
10718;BME280;13513;42.700;23.124;2023-04-01T20:20:31;91994.05;;;7.12;100.00